Weather History for Marfa, TX

Change the Weather History Date:

Friday, April 11, 2014

  Actual Average Record
Temperature  
Mean Temperature 60 °F -  
Max Temperature 82 °F 72 °F 82 °F (2002)
Min Temperature 39 °F 40 °F 26 °F (2008)
Degree Days  
Heating Degree Days 4    
Growing Degree Days 10 (Base 50)    
Moisture  
Dew Point 10 °F    
Average Humidity 13    
Maximum Humidity 23    
Minimum Humidity 10    
Precipitation  
Precipitation 0.00 in - - ()
Sea Level Pressure  
Sea Level Pressure 30.12 in    
Wind  
Wind Speed 7 mph (WNW)    
Max Wind Speed 21 mph    
Max Gust Speed 30 mph    
Visibility 10 miles    
Events      
Averages and records for this station are not official NWS values.
T = Trace of Precipitation, MM = Missing Value Source: NWS Daily Summary

Daily Weather History Graph

Daily Weather History Graph

Search for Another Location

Airport:

Trip Planner

Search our weather history database for the weather conditions in past years. The results will help you decide how hot, cold, wet, or windy it might be!

Date:

Astronomy

Apr. 11, 2014 Rise Set
Actual Time 7:33 AM CDT 8:21 PM CDT
Civil Twilight 7:08 AM CDT 8:45 PM CDT
Nautical Twilight 6:40 AM CDT 9:14 PM CDT
Astronomical Twilight 6:10 AM CDT 9:44 PM CDT
Moon 5:16 PM CDT (4/11) 5:15 AM CDT (4/11)
Length of Visible Light 13h 36m
Length of Day
12h 47m
Waxing Gibbous, 87% of the Moon is Illuminated
Apr 11
Waxing Gibbous
Apr 15
Full
Apr 22
Last Quarter
Apr 29
New
May 6
First Quarter

Hourly Weather History & Observations

Time (CDT) Temp. Windchill Dew Point Humidity Pressure Visibility Wind Dir Wind Speed Gust Speed Precip Events Conditions
12:15 AM 46.4 °F 42.4 °F -5.8 °F 11% 30.14 in 10.0 mi NNW 8.1 mph - N/A   Clear
12:35 AM 46.4 °F 41.5 °F -5.8 °F 11% 30.13 in 10.0 mi NNW 10.4 mph - N/A   Clear
12:55 AM 46.4 °F 41.5 °F -5.8 °F 11% 30.13 in 10.0 mi NNW 10.4 mph - N/A   Clear
1:15 AM 42.8 °F 37.5 °F -7.6 °F 12% 30.13 in 10.0 mi NNW 9.2 mph - N/A   Clear
1:35 AM 41.0 °F 39.0 °F -7.6 °F 13% 30.13 in 10.0 mi North 3.5 mph - N/A   Clear
1:55 AM 44.6 °F 43.1 °F -5.8 °F 12% 30.13 in 10.0 mi North 3.5 mph - N/A   Clear
2:15 AM 41.0 °F 37.1 °F -5.8 °F 14% 30.13 in 10.0 mi NNW 5.8 mph - N/A   Clear
2:35 AM 41.0 °F 37.1 °F -5.8 °F 14% 30.13 in 10.0 mi North 5.8 mph - N/A   Clear
2:55 AM 39.2 °F 34.2 °F -5.8 °F 15% 30.13 in 10.0 mi NE 6.9 mph - N/A   Clear
3:15 AM 39.2 °F 33.6 °F -5.8 °F 15% 30.13 in 10.0 mi North 8.1 mph - N/A   Clear
3:35 AM 39.2 °F 33.6 °F -5.8 °F 15% 30.12 in 10.0 mi North 8.1 mph - N/A   Clear
3:55 AM 41.0 °F 36.4 °F -5.8 °F 14% 30.11 in 10.0 mi NNW 6.9 mph - N/A   Clear
4:15 AM 42.8 °F 37.5 °F -4.0 °F 14% 30.11 in 10.0 mi NNW 9.2 mph - N/A   Clear
4:35 AM 42.8 °F 40.1 °F -4.0 °F 14% 30.11 in 10.0 mi North 4.6 mph - N/A   Clear
4:55 AM 42.8 °F 38.6 °F -4.0 °F 14% 30.11 in 10.0 mi North 6.9 mph - N/A   Clear
5:15 AM 42.8 °F 38.0 °F -2.2 °F 15% 30.11 in 10.0 mi NNW 8.1 mph - N/A   Clear
5:35 AM 44.6 °F 42.2 °F -2.2 °F 14% 30.11 in 10.0 mi NNW 4.6 mph - N/A   Clear
5:55 AM 44.6 °F 40.7 °F -2.2 °F 14% 30.12 in 10.0 mi NNW 6.9 mph - N/A   Clear
6:15 AM 44.6 °F 42.2 °F -2.2 °F 14% 30.12 in 10.0 mi North 4.6 mph - N/A   Clear
6:35 AM 44.6 °F - -0.4 °F 15% 30.12 in 10.0 mi Calm Calm - N/A   Clear
6:55 AM 46.4 °F 42.9 °F -0.4 °F 14% 30.12 in 10.0 mi NNW 6.9 mph - N/A   Clear
7:15 AM 46.4 °F 44.3 °F -0.4 °F 14% 30.13 in 10.0 mi NNW 4.6 mph - N/A   Clear
7:35 AM 48.2 °F - 1.4 °F 15% 30.14 in 10.0 mi NNW 5.8 mph - N/A   Clear
7:55 AM 51.8 °F - 1.4 °F 13% 30.14 in 10.0 mi NNW 4.6 mph - N/A   Clear
8:15 AM 51.8 °F - 1.4 °F 13% 30.14 in 5.0 mi NNW 4.6 mph - N/A   Clear
8:35 AM 51.8 °F - 1.4 °F 13% 30.15 in 10.0 mi Calm Calm - N/A   Clear
8:55 AM 53.6 °F - 3.2 °F 13% 30.15 in 10.0 mi NNW 3.5 mph - N/A   Clear
9:15 AM 59.0 °F - 5.0 °F 12% 30.15 in 10.0 mi North 3.5 mph - N/A   Clear
9:35 AM 60.8 °F - 6.8 °F 12% 30.15 in 10.0 mi Calm Calm - N/A   Clear
9:55 AM 64.4 °F - 8.6 °F 11% 30.16 in 10.0 mi Calm Calm - N/A   Clear
10:15 AM 68.0 °F - 10.4 °F 11% 30.17 in 10.0 mi Calm Calm - N/A   Clear
10:35 AM 69.8 °F - 10.4 °F 10% 30.18 in 10.0 mi SSE 3.5 mph - N/A   Clear
10:55 AM 69.8 °F - 12.2 °F 11% 30.18 in 10.0 mi South 4.6 mph - N/A   Clear
11:15 AM 71.6 °F - 14.0 °F 11% 30.18 in 10.0 mi SSE 5.8 mph - N/A   Clear
11:35 AM 73.4 °F - 15.8 °F 11% 30.18 in 10.0 mi South 4.6 mph - N/A   Clear
11:55 AM 75.2 °F - 15.8 °F 11% 30.19 in 10.0 mi South 5.8 mph - N/A   Clear
12:15 PM 77.0 °F - 17.6 °F 11% 30.18 in 10.0 mi South 5.8 mph - N/A   Clear
12:35 PM 78.8 °F - 19.4 °F 11% 30.18 in 10.0 mi SW 3.5 mph - N/A   Clear
12:55 PM 78.8 °F - 19.4 °F 11% 30.17 in 9.0 mi South 3.5 mph - N/A   Clear
1:15 PM 80.6 °F - 19.4 °F 10% 30.15 in 10.0 mi SSE 5.8 mph - N/A   Clear
1:35 PM 80.6 °F - 19.4 °F 10% 30.15 in 10.0 mi South 5.8 mph - N/A   Clear
1:55 PM 80.6 °F - 19.4 °F 10% 30.14 in 10.0 mi South 5.8 mph - N/A   Clear
2:15 PM 80.6 °F - 19.4 °F 10% 30.14 in 10.0 mi SSE 8.1 mph - N/A   Clear
2:35 PM 80.6 °F - 21.2 °F 11% 30.13 in 10.0 mi South 8.1 mph - N/A   Clear
2:55 PM 82.4 °F - 21.2 °F 10% 30.12 in 10.0 mi ESE 8.1 mph - N/A   Clear
3:15 PM 82.4 °F - 21.2 °F 10% 30.11 in 10.0 mi SW 9.2 mph - N/A   Clear
3:35 PM 82.4 °F - 21.2 °F 10% 30.10 in 10.0 mi South 9.2 mph - N/A   Clear
3:55 PM 82.4 °F - 21.2 °F 10% 30.09 in 10.0 mi West 8.1 mph - N/A   Clear
4:15 PM 82.4 °F - 21.2 °F 10% 30.08 in 10.0 mi West 20.7 mph 26.5 mph N/A   Clear
4:35 PM 82.4 °F - 21.2 °F 10% 30.08 in 10.0 mi WSW 15.0 mph 29.9 mph N/A   Clear
4:55 PM 82.4 °F - 21.2 °F 10% 30.08 in 10.0 mi WSW 20.7 mph 27.6 mph N/A   Clear
5:15 PM 82.4 °F - 21.2 °F 10% 30.07 in 10.0 mi West 17.3 mph 21.9 mph N/A   Clear
5:35 PM 80.6 °F - 21.2 °F 11% 30.07 in 10.0 mi WSW 10.4 mph 18.4 mph N/A   Clear
5:55 PM 80.6 °F - 21.2 °F 11% 30.07 in 10.0 mi West 15.0 mph - N/A   Clear
6:15 PM 80.6 °F - 19.4 °F 10% 30.07 in 10.0 mi West 9.2 mph - N/A   Clear
6:35 PM 80.6 °F - 21.2 °F 11% 30.06 in 10.0 mi SW 15.0 mph 26.5 mph N/A   Clear
6:55 PM 80.6 °F - 19.4 °F 10% 30.06 in 10.0 mi WSW 9.2 mph 19.6 mph N/A   Clear
7:15 PM 78.8 °F - 19.4 °F 11% 30.07 in 10.0 mi WSW 13.8 mph 28.8 mph N/A   Clear
7:35 PM 77.0 °F - 17.6 °F 11% 30.07 in 10.0 mi WSW 8.1 mph - N/A   Partly Cloudy
7:55 PM 75.2 °F - 17.6 °F 11% 30.07 in 10.0 mi West 8.1 mph - N/A   Partly Cloudy
8:15 PM 75.2 °F - 15.8 °F 11% 30.07 in 10.0 mi WNW 9.2 mph - N/A   Clear
8:35 PM 75.2 °F - 15.8 °F 11% 30.08 in 10.0 mi WNW 17.3 mph 23.0 mph N/A   Partly Cloudy
8:55 PM 73.4 °F - 19.4 °F 13% 30.08 in 10.0 mi WNW 15.0 mph - N/A   Partly Cloudy
9:15 PM 73.4 °F - 19.4 °F 13% 30.08 in 10.0 mi WNW 15.0 mph - N/A   Clear
9:35 PM 71.6 °F - 21.2 °F 15% 30.09 in 10.0 mi NW 9.2 mph - N/A   Clear
9:55 PM 69.8 °F - 21.2 °F 16% 30.09 in 10.0 mi WNW 12.7 mph - N/A   Clear
10:15 PM 69.8 °F - 21.2 °F 16% 30.09 in 10.0 mi WNW 9.2 mph - N/A   Clear
10:35 PM 64.4 °F - 19.4 °F 18% 30.10 in 10.0 mi WNW 4.6 mph - N/A   Clear
10:55 PM 60.8 °F - 17.6 °F 19% 30.10 in 10.0 mi NNW 5.8 mph - N/A   Partly Cloudy
11:15 PM 57.2 °F - 17.6 °F 21% 30.10 in 10.0 mi NNW 5.8 mph - N/A   Clear
11:35 PM 57.2 °F - 17.6 °F 21% 30.10 in 10.0 mi NNW 6.9 mph - N/A   Clear
11:55 PM 57.2 °F - 19.4 °F 23% 30.10 in 10.0 mi NW 9.2 mph - N/A   Clear